TimeCST,TemperatureF,Dew PointF,Humidity,Sea Level PressureIn,VisibilityMPH,Wind Direction,Wind SpeedMPH,Gust SpeedMPH,PrecipitationIn,Events,Conditions,WindDirDegrees,DateUTC
12:15 AM,14.0,6.8,73,30.38,10.0,WNW,6.9,-,N/A,Snow,Light Snow,300,2013-01-21 06:15:00
12:35 AM,14.0,6.8,73,30.38,10.0,WNW,9.2,-,N/A,,Overcast,300,2013-01-21 06:35:00
12:55 AM,15.8,6.8,68,30.38,10.0,NW,11.5,-,N/A,,Overcast,320,2013-01-21 06:55:00
1:15 AM,14.0,5.0,67,30.37,10.0,NNW,12.7,-,N/A,,Overcast,330,2013-01-21 07:15:00
1:35 AM,14.0,5.0,67,30.38,10.0,NW,13.8,-,N/A,,Overcast,320,2013-01-21 07:35:00
1:55 AM,14.0,3.2,62,30.37,10.0,NNW,16.1,-,N/A,,Overcast,340,2013-01-21 07:55:00
2:15 AM,14.0,3.2,62,30.38,10.0,NNW,13.8,20.7,N/A,,Overcast,330,2013-01-21 08:15:00
2:35 AM,12.2,1.4,62,30.38,10.0,NNW,15.0,21.9,N/A,,Overcast,340,2013-01-21 08:35:00
2:55 AM,12.2,1.4,62,30.39,10.0,NNW,19.6,26.5,N/A,,Overcast,340,2013-01-21 08:55:00
3:15 AM,10.4,-0.4,62,30.39,10.0,NNW,15.0,20.7,N/A,,Overcast,330,2013-01-21 09:15:00
3:35 AM,10.4,-2.2,57,30.38,10.0,NW,18.4,-,N/A,,Overcast,320,2013-01-21 09:35:00
3:55 AM,8.6,-5.8,52,30.38,10.0,NW,19.6,25.3,N/A,,Overcast,320,2013-01-21 09:55:00
4:15 AM,8.6,-5.8,52,30.38,10.0,NNW,11.5,25.3,N/A,,Overcast,330,2013-01-21 10:15:00
4:35 AM,8.6,-4.0,57,30.38,10.0,NNW,15.0,-,N/A,,Overcast,340,2013-01-21 10:35:00
4:55 AM,6.8,-5.8,56,30.39,10.0,NNW,13.8,26.5,N/A,,Overcast,330,2013-01-21 10:55:00
5:15 AM,6.8,-5.8,56,30.38,10.0,NNW,16.1,21.9,N/A,,Overcast,330,2013-01-21 11:15:00
5:35 AM,6.8,-5.8,56,30.38,10.0,NNW,11.5,20.7,N/A,,Overcast,330,2013-01-21 11:35:00
5:55 AM,5.0,-5.8,61,30.39,10.0,NNW,17.3,23.0,N/A,,Overcast,330,2013-01-21 11:55:00
6:15 AM,5.0,-7.6,56,30.39,10.0,NNW,12.7,24.2,N/A,,Overcast,330,2013-01-21 12:15:00
6:35 AM,5.0,-9.4,52,30.40,10.0,NNW,16.1,-,N/A,,Overcast,330,2013-01-21 12:35:00
6:55 AM,3.2,-7.6,61,30.41,10.0,NNW,11.5,21.9,N/A,,Overcast,340,2013-01-21 12:55:00
7:15 AM,-9999,-9999,N/A,-9999,-9999.0,North,-9999.0,-,N/A,,Unknown,0,2013-01-21 13:15:00
7:35 AM,3.2,-9.4,56,30.41,10.0,NNW,11.5,18.4,N/A,,Unknown,330,2013-01-21 13:35:00
7:55 AM,3.2,-9.4,56,30.41,10.0,NNW,9.2,16.1,N/A,,Mostly Cloudy,340,2013-01-21 13:55:00
8:15 AM,3.2,-9.4,56,30.41,10.0,NNW,8.1,15.0,N/A,,Partly Cloudy,340,2013-01-21 14:15:00
8:35 AM,3.2,-7.6,61,30.41,10.0,NW,11.5,-,N/A,,Partly Cloudy,320,2013-01-21 14:35:00
8:55 AM,3.2,-9.4,56,30.42,10.0,NW,13.8,-,N/A,,Clear,320,2013-01-21 14:55:00
9:15 AM,3.2,-9.4,56,30.42,10.0,NW,8.1,16.1,N/A,,Clear,320,2013-01-21 15:15:00
9:35 AM,5.0,-9.4,52,30.42,10.0,NW,11.5,-,N/A,,Clear,320,2013-01-21 15:35:00
9:55 AM,5.0,-7.6,56,30.43,10.0,NNW,10.4,-,N/A,,Clear,340,2013-01-21 15:55:00
10:15 AM,5.0,-7.6,56,30.43,10.0,NNW,11.5,-,N/A,,Clear,340,2013-01-21 16:15:00
10:35 AM,5.0,-9.4,52,30.43,10.0,NW,12.7,-,N/A,,Clear,310,2013-01-21 16:35:00
10:55 AM,6.8,-7.6,52,30.44,10.0,NNW,10.4,-,N/A,,Partly Cloudy,330,2013-01-21 16:55:00
11:15 AM,6.8,-9.4,48,30.43,10.0,NNW,11.5,-,N/A,,Partly Cloudy,330,2013-01-21 17:15:00
11:35 AM,6.8,-7.6,52,30.42,10.0,NW,10.4,-,N/A,,Scattered Clouds,320,2013-01-21 17:35:00
11:55 AM,6.8,-9.4,48,30.41,10.0,NW,9.2,15.0,N/A,,Partly Cloudy,320,2013-01-21 17:55:00
12:15 PM,6.8,-7.6,52,30.41,10.0,WNW,8.1,-,N/A,,Partly Cloudy,290,2013-01-21 18:15:00
12:35 PM,6.8,-7.6,52,30.40,10.0,NW,10.4,-,N/A,,Clear,320,2013-01-21 18:35:00
12:55 PM,8.6,-7.6,48,30.39,10.0,NW,9.2,-,N/A,,Clear,320,2013-01-21 18:55:00
1:15 PM,8.6,-9.4,44,30.39,10.0,NW,8.1,13.8,N/A,,Clear,310,2013-01-21 19:15:00
1:35 PM,8.6,-7.6,48,30.38,10.0,NW,10.4,-,N/A,,Clear,310,2013-01-21 19:35:00
1:55 PM,8.6,-7.6,48,30.37,10.0,NW,8.1,-,N/A,,Clear,310,2013-01-21 19:55:00
2:15 PM,10.4,-7.6,44,30.37,10.0,NW,10.4,-,N/A,,Clear,310,2013-01-21 20:15:00
2:35 PM,12.2,-7.6,41,30.36,10.0,NW,6.9,13.8,N/A,,Clear,320,2013-01-21 20:35:00
2:55 PM,12.2,-7.6,41,30.37,10.0,WNW,9.2,-,N/A,,Clear,300,2013-01-21 20:55:00
3:15 PM,12.2,-7.6,41,30.36,10.0,Variable,6.9,-,N/A,,Clear,0,2013-01-21 21:15:00
3:35 PM,12.2,-7.6,41,30.35,10.0,NW,8.1,-,N/A,,Clear,310,2013-01-21 21:35:00
3:55 PM,12.2,-7.6,41,30.35,10.0,NNW,9.2,-,N/A,,Clear,330,2013-01-21 21:55:00
4:15 PM,12.2,-9.4,38,30.35,10.0,NNW,10.4,-,N/A,,Clear,330,2013-01-21 22:15:00
4:35 PM,12.2,-7.6,41,30.35,10.0,NW,9.2,-,N/A,,Clear,310,2013-01-21 22:35:00
4:55 PM,12.2,-7.6,41,30.34,10.0,NW,9.2,-,N/A,,Scattered Clouds,320,2013-01-21 22:55:00
5:15 PM,12.2,-7.6,41,30.34,10.0,North,-9999.0,-,N/A,,Scattered Clouds,0,2013-01-21 23:15:00
5:35 PM,12.2,-7.6,41,30.34,10.0,WNW,9.2,-,N/A,,Mostly Cloudy,300,2013-01-21 23:35:00
5:55 PM,12.2,-7.6,41,30.34,10.0,NW,9.2,-,N/A,,Overcast,320,2013-01-21 23:55:00
6:15 PM,12.2,-5.8,45,30.34,10.0,North,-9999.0,-,N/A,,Overcast,0,2013-01-22 00:15:00
6:55 PM,10.4,-4.0,52,30.35,10.0,North,8.1,-,N/A,,Overcast,360,2013-01-22 00:55:00
7:15 PM,10.4,-4.0,52,30.34,10.0,NNW,5.8,-,N/A,,Overcast,340,2013-01-22 01:15:00
7:35 PM,10.4,-4.0,52,30.35,10.0,North,4.6,-,N/A,,Overcast,360,2013-01-22 01:35:00
7:55 PM,10.4,-4.0,52,30.35,10.0,North,4.6,-,N/A,,Overcast,360,2013-01-22 01:55:00
8:15 PM,10.4,-4.0,52,30.35,10.0,North,8.1,-,N/A,,Overcast,360,2013-01-22 02:15:00
8:35 PM,10.4,-4.0,52,30.35,10.0,North,5.8,-,N/A,,Overcast,360,2013-01-22 02:35:00
8:55 PM,10.4,-4.0,52,30.35,10.0,North,4.6,-,N/A,,Overcast,360,2013-01-22 02:55:00
9:15 PM,10.4,-4.0,52,30.35,10.0,North,5.8,-,N/A,,Overcast,360,2013-01-22 03:15:00
9:35 PM,10.4,-2.2,57,30.35,10.0,North,5.8,-,N/A,,Overcast,10,2013-01-22 03:35:00
9:55 PM,10.4,-4.0,52,30.34,10.0,North,5.8,-,N/A,,Overcast,10,2013-01-22 03:55:00
10:15 PM,10.4,-4.0,52,30.34,10.0,North,3.5,-,N/A,,Overcast,360,2013-01-22 04:15:00
10:35 PM,10.4,-4.0,52,30.34,10.0,NNE,4.6,-,N/A,,Overcast,20,2013-01-22 04:35:00
10:55 PM,10.4,-4.0,52,30.34,10.0,NNW,4.6,-,N/A,,Overcast,340,2013-01-22 04:55:00
11:15 PM,8.6,-4.0,57,30.34,10.0,NW,3.5,-,N/A,,Overcast,320,2013-01-22 05:15:00
11:35 PM,10.4,-2.2,57,30.34,10.0,Calm,Calm,-,N/A,,Overcast,0,2013-01-22 05:35:00
11:55 PM,10.4,-4.0,52,30.33,10.0,Calm,Calm,-,N/A,,Overcast,0,2013-01-22 05:55:00